Time;durP1;ratioP1;P1;durP2;ratioP2;P2;SDS_P1;SDS_P2;PMS_P1;PMS_P2;Temp;Humidity;BMP_temperature;BMP_pressure;BME280_temperature;BME280_humidity;BME280_pressure;Samples;Min_cycle;Max_cycle;Signal;HPM_P1;HPM_P2
2023/06/04 12:39:02;;;;;;;0.50;0.30;;;;;;;-145.06;100.00;60892.56;5946681;23;20137;-90
2023/06/04 12:41:45;;;;;;;0.60;0.28;;;;;;;-145.06;100.00;60892.56;5923997;23;20018;-91
2023/06/04 12:44:25;;;;;;;0.55;0.20;;;;;;;-145.06;100.00;60892.56;5921547;23;20002;-91
2023/06/04 12:47:04;;;;;;;0.40;0.20;;;;;;;26.75;100.00;60892.56;5921483;23;20009;-93
2023/06/04 12:49:44;;;;;;;0.20;0.20;;;;;;;-145.06;100.00;60892.56;5921246;23;20089;-91
2023/06/04 12:52:23;;;;;;;0.57;0.17;;;;;;;-145.06;100.00;60892.56;5921168;23;20045;-89
2023/06/04 12:55:03;;;;;;;0.32;0.22;;;;;;;-145.06;100.00;60892.56;5927176;23;20069;-90
2023/06/04 12:57:44;;;;;;;0.22;0.20;;;;;;;-145.06;100.00;60892.56;5958753;23;20005;-92
2023/06/04 13:01:03;;;;;;;0.28;0.20;;;;;;;-145.06;100.00;60892.56;5925143;23;20014;-90
2023/06/04 13:03:42;;;;;;;0.30;0.30;;;;;;;-145.06;100.00;60892.56;5923858;23;20005;-90
2023/06/04 13:08:54;;;;;;;0.20;0.20;;;;;;;-145.06;100.00;60892.56;5962524;23;20010;-89
2023/06/04 13:11:33;;;;;;;;;;;;;;;-145.06;100.00;60892.56;5940787;23;20014;-92
2023/06/04 13:14:15;;;;;;;0.10;0.10;;;;;;;41.86;100.00;60892.56;5954979;23;20320;-91
2023/06/04 13:16:55;;;;;;;0.25;0.10;;;;;;;-145.06;100.00;60892.56;5923945;23;20013;-91
2023/06/04 13:19:37;;;;;;;1.38;0.32;;;;;;;-145.06;100.00;60892.56;5927175;23;20009;-93
2023/06/04 13:22:50;;;;;;;0.30;0.30;;;;;;;-145.06;100.00;60892.56;5928377;23;20001;-94
2023/06/04 13:25:32;;;;;;;0.20;0.20;;;;;;;-145.06;100.00;60892.56;5897197;23;20005;-93
2023/06/04 13:28:23;;;;;;;0.38;0.20;;;;;;;-145.06;100.00;60892.56;5917036;23;20009;-93
2023/06/04 13:31:02;;;;;;;0.50;0.30;;;;;;;-145.06;100.00;60892.56;5920338;23;20088;-91
2023/06/04 13:33:42;;;;;;;0.45;0.30;;;;;;;41.86;100.00;60892.56;5915740;23;20073;-94
2023/06/04 13:36:21;;;;;;;0.30;0.30;;;;;;;187.52;100.00;60892.56;5915542;23;20010;-90
2023/06/04 13:39:00;;;;;;;0.20;0.20;;;;;;;41.86;100.00;60892.56;5917479;23;20009;-90
2023/06/04 13:41:39;;;;;;;0.30;0.30;;;;;;;27.41;100.00;60892.56;5918943;23;20009;-93
2023/06/04 13:44:20;;;;;;;0.20;0.17;;;;;;;-145.06;100.00;60892.56;5919876;23;20005;-92
2023/06/04 13:46:59;;;;;;;0.30;0.20;;;;;;;-145.06;100.00;60892.56;5922774;23;20009;-92
2023/06/04 13:50:08;;;;;;;;;;;;;;;;;;;;;
2023/06/04 13:52:47;;;;;;;0.30;0.30;;;;;;;104.26;100.00;60892.56;5954516;23;20005;-91
2023/06/04 13:55:32;;;;;;;0.73;0.10;;;;;;;-145.06;100.00;60892.56;5925102;23;20302;-94
2023/06/04 15:36:57;;;;;;;0.98;0.20;;;;;;;62.66;100.00;60892.56;5953757;23;20055;31
2023/06/04 15:50:39;;;;;;;3.25;0.50;;;;;;;-145.06;100.00;60892.56;5994320;23;20047;-94
2023/06/04 16:30:14;;;;;;;0.25;0.20;;;;;;;-145.06;100.00;60892.56;5949408;23;20036;-89
2023/06/04 16:32:53;;;;;;;;;;;;;;;-145.06;100.00;60892.56;5920544;23;20009;-91
2023/06/04 16:35:33;;;;;;;0.40;0.32;;;;;;;-145.06;100.00;60892.56;5922309;23;19908;-92
2023/06/04 16:38:24;;;;;;;;;;;;;;;-145.06;100.00;60892.56;5923321;23;20009;-93
2023/06/04 16:48:09;;;;;;;0.35;0.32;;;;;;;-145.06;100.00;60892.56;5896711;23;20443;-92
2023/06/04 16:50:48;;;;;;;0.30;0.30;;;;;;;-145.06;100.00;60892.56;5892811;23;20017;-92
2023/06/04 16:53:29;;;;;;;1.05;0.40;;;;;;;26.60;100.00;60892.56;5892344;23;20010;-91
2023/06/04 16:56:09;;;;;;;0.40;0.32;;;;;;;-145.06;100.00;60892.56;5892409;23;20018;-92
2023/06/04 16:58:48;;;;;;;0.80;0.40;;;;;;;-145.06;100.00;60892.56;5892857;23;20006;-91
2023/06/04 17:01:27;;;;;;;0.80;0.40;;;;;;;-145.06;100.00;60892.56;5893444;23;20006;-92
2023/06/04 17:04:06;;;;;;;0.17;0.10;;;;;;;-145.06;100.00;60892.56;5898820;23;20002;-94
2023/06/04 17:06:45;;;;;;;0.28;0.25;;;;;;;-145.06;100.00;60892.56;5910760;23;20018;-91
2023/06/04 17:09:24;;;;;;;0.30;0.30;;;;;;;26.92;100.00;60892.56;5905015;23;20006;-91
2023/06/04 17:12:03;;;;;;;0.68;0.38;;;;;;;-145.06;100.00;60892.56;5893037;23;20010;-93
2023/06/04 17:14:43;;;;;;;;;;;;;;;-145.06;100.00;60892.56;5890189;23;20006;-92
2023/06/04 17:17:22;;;;;;;0.35;0.30;;;;;;;-145.06;100.00;60892.56;5892936;23;19905;-93
2023/06/04 17:20:01;;;;;;;0.40;0.30;;;;;;;-145.06;100.00;60892.56;5893530;23;20322;-92
2023/06/04 17:22:40;;;;;;;;;;;;;;;-145.06;100.00;60892.56;5893858;23;20428;-91
2023/06/04 17:25:20;;;;;;;0.40;0.22;;;;;;;-145.06;100.00;60892.56;5891120;23;19909;-92
2023/06/04 17:27:58;;;;;;;;;;;;;;;-145.06;100.00;60892.56;5893956;23;20006;-92
2023/06/04 17:30:38;;;;;;;0.68;0.30;;;;;;;-145.06;100.00;60892.56;5893304;23;19912;-92
2023/06/04 17:33:17;;;;;;;0.35;0.30;;;;;;;-145.06;100.00;60892.56;5925649;23;20010;-92
2023/06/04 17:39:05;;;;;;;1.35;0.30;;;;;;;-145.06;100.00;60892.56;5903525;23;20010;-93
2023/06/04 17:42:10;;;;;;;0.30;0.30;;;;;;;-145.06;100.00;60892.56;5895483;23;20006;-95
2023/06/04 18:06:18;;;;;;;0.32;0.30;;;;;;;-145.06;100.00;60892.56;5940690;23;20017;-91
2023/06/04 18:08:57;;;;;;;0.28;0.25;;;;;;;-145.06;100.00;60892.56;5923008;23;20006;-91
2023/06/04 18:12:10;;;;;;;0.32;0.30;;;;;;;-145.06;100.00;60892.56;5923054;23;20314;-91
2023/06/04 18:15:31;;;;;;;0.60;0.30;;;;;;;-145.06;100.00;60892.56;5945166;23;20006;-91
2023/06/04 18:18:42;;;;;;;0.38;0.30;;;;;;;-145.06;100.00;60892.56;5922952;23;20033;-95
2023/06/04 18:28:36;;;;;;;0.32;0.20;;;;;;;-145.06;100.00;60892.56;5954747;23;20005;-94
2023/06/04 18:31:15;;;;;;;0.15;0.10;;;;;;;-145.06;100.00;60892.56;5926312;23;20005;-92
2023/06/04 18:34:00;;;;;;;0.65;0.40;;;;;;;-145.06;100.00;60892.56;5925024;23;20009;-94
2023/06/04 18:36:39;;;;;;;0.60;0.40;;;;;;;-145.06;100.00;60892.56;5922713;23;20009;-94
2023/06/04 18:39:22;;;;;;;0.70;0.40;;;;;;;-145.06;100.00;60892.56;5944445;23;20084;-94
2023/06/04 18:42:02;;;;;;;0.40;0.30;;;;;;;24.49;100.00;60892.56;5922315;23;20014;-92
2023/06/04 18:44:42;;;;;;;0.40;0.30;;;;;;;-145.06;100.00;60892.56;5922491;23;20383;-93
2023/06/04 18:47:22;;;;;;;0.50;0.40;;;;;;;-145.06;100.00;60892.56;5922426;23;20009;-95
2023/06/04 18:50:01;;;;;;;0.50;0.30;;;;;;;24.23;100.00;60892.56;5920113;23;20080;-94
2023/06/04 18:52:40;;;;;;;0.30;0.30;;;;;;;-145.06;100.00;60892.56;5922371;23;20013;-93
2023/06/04 18:55:19;;;;;;;0.63;0.40;;;;;;;-145.06;100.00;60892.56;5922751;23;20005;-94
2023/06/04 18:57:59;;;;;;;0.50;0.40;;;;;;;-145.06;100.00;60892.56;5932555;23;20025;-95
2023/06/04 19:00:38;;;;;;;0.60;0.30;;;;;;;-145.06;100.00;60892.56;5922445;23;20092;-92
2023/06/04 19:03:19;;;;;;;0.43;0.35;;;;;;;-145.06;100.00;60892.56;5922538;23;20017;-95
2023/06/04 19:05:58;;;;;;;0.30;0.30;;;;;;;-145.06;100.00;60892.56;5922477;23;20337;-93
2023/06/04 19:08:38;;;;;;;0.57;0.40;;;;;;;-145.06;100.00;60892.56;5924235;23;20005;-94
2023/06/04 19:11:17;;;;;;;0.75;0.50;;;;;;;-145.06;100.00;60892.56;5926000;23;20010;-94
2023/06/04 19:13:56;;;;;;;0.75;0.40;;;;;;;-145.06;100.00;60892.56;5924654;23;20029;-93
2023/06/04 19:16:35;;;;;;;0.50;0.40;;;;;;;-145.06;100.00;60892.56;5923938;23;20009;-91
2023/06/04 19:19:19;;;;;;;0.80;0.50;;;;;;;-145.06;100.00;60892.56;5923998;23;20009;-93
2023/06/04 19:21:58;;;;;;;0.47;0.40;;;;;;;-145.06;100.00;60892.56;5924308;23;20257;-94
2023/06/04 19:24:37;;;;;;;0.70;0.43;;;;;;;-145.06;100.00;60892.56;5925300;23;20005;-95
2023/06/04 19:27:17;;;;;;;1.15;0.50;;;;;;;-145.06;100.00;60892.56;5924508;23;20001;-94
2023/06/04 19:29:56;;;;;;;0.65;0.50;;;;;;;23.36;100.00;60892.56;5924670;23;20005;-95
2023/06/04 19:32:35;;;;;;;0.57;0.47;;;;;;;23.27;100.00;60892.56;5923990;23;20010;-94
2023/06/04 19:35:14;;;;;;;1.08;0.40;;;;;;;23.18;100.00;60892.56;5923866;23;20005;-94
2023/06/04 19:37:53;;;;;;;0.47;0.32;;;;;;;-145.06;100.00;60892.56;5924510;23;20005;-93
2023/06/04 19:40:32;;;;;;;0.80;0.40;;;;;;;23.04;100.00;60892.56;5923417;23;20013;-94
2023/06/04 19:43:11;;;;;;;1.53;0.50;;;;;;;-145.06;100.00;60892.56;5925062;23;20001;-94
2023/06/04 19:45:50;;;;;;;0.73;0.40;;;;;;;-145.06;100.00;60892.56;5922352;23;20005;-93
2023/06/04 19:48:30;;;;;;;0.57;0.50;;;;;;;-145.06;100.00;60892.56;5920254;23;20143;-94
2023/06/04 19:51:10;;;;;;;0.68;0.50;;;;;;;-145.06;100.00;60892.56;5922192;23;20005;-94
2023/06/04 19:53:49;;;;;;;0.68;0.55;;;;;;;-145.06;100.00;60892.56;5922257;23;20028;-94
2023/06/04 19:56:28;;;;;;;3.22;0.60;;;;;;;-145.06;100.00;60892.56;5901332;23;20009;-95
2023/06/04 19:59:07;;;;;;;1.10;0.50;;;;;;;-145.06;100.00;60892.56;5921850;23;20005;-94
2023/06/04 20:01:46;;;;;;;0.65;0.50;;;;;;;-145.06;100.00;60892.56;5922621;23;20344;-95
2023/06/04 20:04:26;;;;;;;0.80;0.57;;;;;;;-145.06;100.00;60892.56;5923175;23;20006;-93
2023/06/04 20:07:06;;;;;;;0.82;0.47;;;;;;;-145.06;100.00;60892.56;5923957;23;20005;-93
2023/06/04 20:09:44;;;;;;;1.60;0.50;;;;;;;-145.06;100.00;60892.56;5923235;23;20001;-93
2023/06/04 20:12:24;;;;;;;0.98;0.60;;;;;;;-145.06;100.00;60892.56;5922701;23;20032;-94
2023/06/04 20:15:03;;;;;;;0.93;0.60;;;;;;;-145.06;100.00;60892.56;5924258;23;20013;-95
2023/06/04 20:17:42;;;;;;;0.47;0.38;;;;;;;-145.06;100.00;60892.56;5923774;23;20029;-94
2023/06/04 20:20:21;;;;;;;0.63;0.47;;;;;;;-145.06;100.00;60892.56;5925045;23;20080;-92
2023/06/04 20:23:00;;;;;;;0.50;0.37;;;;;;;-145.06;100.00;60892.56;5923622;23;20452;-94
2023/06/04 20:25:39;;;;;;;0.63;0.45;;;;;;;-145.06;100.00;60892.56;5923377;23;20013;-94
2023/06/04 20:28:18;;;;;;;0.60;0.40;;;;;;;-145.06;100.00;60892.56;5924128;23;20425;-94
2023/06/04 20:30:57;;;;;;;0.50;0.40;;;;;;;-145.06;100.00;60892.56;5924144;23;20013;-93
2023/06/04 20:33:37;;;;;;;0.63;0.45;;;;;;;-145.06;100.00;60892.56;5923569;23;20080;-95
2023/06/04 20:36:16;;;;;;;0.57;0.40;;;;;;;21.64;100.00;60892.56;5924218;23;20436;-95
2023/06/04 20:38:56;;;;;;;0.50;0.40;;;;;;;-145.06;100.00;60892.56;5922918;23;20073;-94
2023/06/04 20:41:35;;;;;;;1.88;0.50;;;;;;;-145.06;100.00;60892.56;5924151;23;20233;-94
2023/06/04 20:44:16;;;;;;;0.75;0.43;;;;;;;-145.06;100.00;60892.56;5924077;23;20009;-94
2023/06/04 20:46:55;;;;;;;1.05;0.50;;;;;;;62.66;100.00;60892.56;5924456;23;20001;-92
2023/06/04 20:49:34;;;;;;;0.93;0.55;;;;;;;-145.06;100.00;60892.56;5923747;23;20005;-93
2023/06/04 20:52:14;;;;;;;1.25;0.45;;;;;;;-145.06;100.00;60892.56;5935967;23;19997;-94
2023/06/04 20:54:53;;;;;;;0.50;0.40;;;;;;;-145.06;100.00;60892.56;5939722;23;20010;-92
2023/06/04 20:57:32;;;;;;;0.85;0.50;;;;;;;-145.06;100.00;60892.56;5932710;23;20017;-93
2023/06/04 21:00:11;;;;;;;0.95;0.52;;;;;;;-145.06;100.00;60892.56;5923593;23;20029;-92
2023/06/04 21:02:50;;;;;;;0.52;0.30;;;;;;;-145.06;100.00;60892.56;5923327;23;20077;-93
2023/06/04 21:05:29;;;;;;;1.47;0.47;;;;;;;20.92;100.00;60892.56;5923568;23;20009;-91
2023/06/04 21:08:08;;;;;;;0.50;0.28;;;;;;;-145.06;100.00;60892.56;5923387;23;20009;-92
2023/06/04 21:10:47;;;;;;;0.80;0.53;;;;;;;20.77;100.00;60892.56;5923563;23;20006;-91
2023/06/04 21:13:26;;;;;;;0.60;0.40;;;;;;;-145.06;100.00;60892.56;5922550;23;20009;-93
2023/06/04 21:16:05;;;;;;;0.90;0.70;;;;;;;-145.06;100.00;60892.56;5923618;23;20445;-92
2023/06/04 21:18:45;;;;;;;2.80;0.88;;;;;;;-145.06;100.00;60892.56;5923466;23;20010;-92
2023/06/04 21:21:23;;;;;;;0.50;0.50;;;;;;;-145.06;100.00;60892.56;5922900;23;20025;-91
2023/06/04 21:24:03;;;;;;;0.90;0.50;;;;;;;-145.06;100.00;60892.56;5923100;23;20381;-91
2023/06/04 21:26:42;;;;;;;1.08;0.50;;;;;;;-145.06;100.00;60892.56;5923219;23;20013;-92
2023/06/04 21:29:21;;;;;;;0.52;0.30;;;;;;;-145.06;100.00;60892.56;5922847;23;20029;-91
2023/06/04 21:32:00;;;;;;;0.77;0.50;;;;;;;-145.06;100.00;60892.56;5923072;23;20005;-90
2023/06/04 21:34:39;;;;;;;0.75;0.50;;;;;;;-145.06;100.00;60892.56;5922353;23;20245;-91
2023/06/04 21:37:19;;;;;;;0.50;0.50;;;;;;;-145.06;100.00;60892.56;5922724;23;20033;-94
2023/06/04 21:39:58;;;;;;;0.70;0.52;;;;;;;-145.06;100.00;60892.56;5923340;23;20489;-92
2023/06/04 21:42:37;;;;;;;0.60;0.50;;;;;;;-145.06;100.00;60892.56;5922273;23;20037;-89
2023/06/04 21:45:16;;;;;;;0.70;0.50;;;;;;;19.75;100.00;60892.56;5922474;23;20005;-91
2023/06/04 21:47:55;;;;;;;0.50;0.40;;;;;;;19.66;100.00;60892.56;5922935;23;20005;-90
2023/06/04 21:50:34;;;;;;;0.77;0.40;;;;;;;-145.06;100.00;60892.56;5922144;23;20084;-93
2023/06/04 21:53:14;;;;;;;0.85;0.55;;;;;;;19.78;100.00;60892.56;5922851;23;20005;-92
2023/06/04 21:55:53;;;;;;;0.57;0.43;;;;;;;-145.06;100.00;60892.56;5922287;23;20013;-93
2023/06/04 21:58:32;;;;;;;0.60;0.40;;;;;;;-145.06;100.00;60892.56;5922741;23;20010;-92
2023/06/04 22:01:14;;;;;;;1.23;0.63;;;;;;;-145.06;100.00;60892.56;5922741;23;20009;-93
2023/06/04 22:03:53;;;;;;;0.60;0.50;;;;;;;-145.06;100.00;60892.56;5921758;23;20145;-94
2023/06/04 22:06:32;;;;;;;0.88;0.50;;;;;;;-145.06;100.00;60892.56;5922332;23;20013;-92
2023/06/04 22:09:11;;;;;;;0.73;0.50;;;;;;;-145.06;100.00;60892.56;5922330;23;20006;-93
2023/06/04 22:11:52;;;;;;;0.50;0.43;;;;;;;-145.06;100.00;60892.56;5922962;23;20302;-94
2023/06/04 22:14:32;;;;;;;0.70;0.50;;;;;;;-145.06;100.00;60892.56;5922247;23;20035;-92
2023/06/04 22:17:11;;;;;;;0.63;0.63;;;;;;;-145.06;100.00;60892.56;5921710;23;20041;-94
2023/06/04 22:19:50;;;;;;;0.65;0.50;;;;;;;-145.06;100.00;60892.56;5921427;23;20006;-91
2023/06/04 22:22:29;;;;;;;0.85;0.52;;;;;;;18.32;100.00;60892.56;5922409;23;20006;-91
2023/06/04 22:25:09;;;;;;;0.60;0.50;;;;;;;18.23;100.00;60892.56;5921564;23;20001;-91
2023/06/04 22:27:48;;;;;;;0.80;0.50;;;;;;;-145.06;100.00;60892.56;5921868;23;20009;-93
2023/06/04 22:30:27;;;;;;;0.65;0.43;;;;;;;-145.06;100.00;60892.56;5921428;23;20009;-94
2023/06/04 22:33:06;;;;;;;0.80;0.60;;;;;;;-145.06;100.00;60892.56;5922380;23;20322;-93
2023/06/04 22:35:45;;;;;;;1.10;0.60;;;;;;;-145.06;100.00;60892.56;5921828;23;20064;-94
2023/06/04 22:38:24;;;;;;;0.80;0.57;;;;;;;17.76;100.00;60892.56;5921770;23;20009;-90
2023/06/04 22:41:03;;;;;;;0.70;0.50;;;;;;;-145.06;100.00;60892.56;5921449;23;20009;-91
2023/06/04 22:43:42;;;;;;;1.75;0.60;;;;;;;-145.06;100.00;60892.56;5921946;23;20429;-91
2023/06/04 22:46:21;;;;;;;2.08;0.60;;;;;;;-145.06;100.00;60892.56;5921126;23;20080;-91
2023/06/04 22:49:00;;;;;;;1.50;0.80;;;;;;;-145.06;100.00;60892.56;5921253;23;20009;-91
2023/06/04 22:51:39;;;;;;;0.63;0.53;;;;;;;-145.06;100.00;60892.56;5921820;23;20237;-92
2023/06/04 22:54:18;;;;;;;0.47;0.40;;;;;;;17.30;100.00;60892.56;5922855;23;20009;-92
2023/06/04 22:56:57;;;;;;;0.60;0.60;;;;;;;-145.06;100.00;60892.56;5895027;23;20014;-91
2023/06/04 22:59:36;;;;;;;0.93;0.60;;;;;;;17.13;100.00;60892.56;5894662;23;20010;-92
2023/06/04 23:02:15;;;;;;;0.80;0.70;;;;;;;17.07;100.00;60892.56;5895221;23;20317;-93
2023/06/04 23:04:55;;;;;;;0.45;0.35;;;;;;;-145.06;100.00;60892.56;5894306;23;20006;-92
2023/06/04 23:07:34;;;;;;;0.80;0.60;;;;;;;-145.06;100.00;60892.56;5895148;23;20010;-93
2023/06/04 23:10:14;;;;;;;;;;;;;;;-145.06;100.00;60892.56;5894865;23;20037;-93
2023/06/04 23:12:53;;;;;;;0.68;0.50;;;;;;;-145.06;100.00;60892.56;5894804;23;19905;-90
2023/06/04 23:15:33;;;;;;;0.93;0.40;;;;;;;-145.06;100.00;60892.56;5894630;23;20014;-91
2023/06/04 23:18:12;;;;;;;0.50;0.43;;;;;;;-145.06;100.00;60892.56;5894860;23;20692;-91
2023/06/04 23:20:50;;;;;;;0.63;0.50;;;;;;;-145.06;100.00;60892.56;5894385;23;20010;-92
2023/06/04 23:23:29;;;;;;;0.90;0.47;;;;;;;-145.06;100.00;60892.56;5894229;23;20010;-91
2023/06/04 23:26:09;;;;;;;1.52;0.40;;;;;;;-145.06;100.00;60892.56;5893732;23;20005;-90
2023/06/04 23:28:48;;;;;;;0.77;0.60;;;;;;;-145.06;100.00;60892.56;5894569;23;20006;-90
2023/06/04 23:31:27;;;;;;;0.50;0.50;;;;;;;-145.06;100.00;60892.56;5894369;23;20065;-90
2023/06/04 23:34:06;;;;;;;0.70;0.60;;;;;;;-145.06;100.00;60892.56;5894803;23;20010;-91
2023/06/04 23:36:45;;;;;;;0.80;0.60;;;;;;;-145.06;100.00;60892.56;5894214;23;20006;-90
2023/06/04 23:39:25;;;;;;;0.35;0.32;;;;;;;-145.06;100.00;60892.56;5895039;23;20010;-90
2023/06/04 23:42:04;;;;;;;0.60;0.40;;;;;;;-145.06;100.00;60892.56;5894041;23;20328;-91
2023/06/04 23:44:43;;;;;;;0.50;0.40;;;;;;;-145.06;100.00;60892.56;5894367;23;20002;-90
2023/06/04 23:47:22;;;;;;;0.77;0.40;;;;;;;-145.06;100.00;60892.56;5894378;23;20014;-91
2023/06/04 23:50:01;;;;;;;0.80;0.40;;;;;;;15.83;100.00;60892.56;5893203;23;20085;-90
2023/06/04 23:52:40;;;;;;;0.60;0.40;;;;;;;15.88;100.00;60892.56;5894442;23;20010;-90
2023/06/04 23:55:19;;;;;;;0.70;0.45;;;;;;;15.88;100.00;60892.56;5903735;23;20253;-90
2023/06/04 23:57:59;;;;;;;0.85;0.55;;;;;;;15.88;100.00;60892.56;5922063;23;20005;-92
